sensor_id;sensor_type;location;lat;lon;timestamp;temperature;humidity
60495;DHT22;46342;49.046;11.920;2022-07-12T00:01:47;18.80;53.10
60495;DHT22;46342;49.046;11.920;2022-07-12T00:04:13;18.80;53.20
60495;DHT22;46342;49.046;11.920;2022-07-12T00:06:39;18.70;53.20
60495;DHT22;46342;49.046;11.920;2022-07-12T00:09:04;18.70;53.20
60495;DHT22;46342;49.046;11.920;2022-07-12T00:11:30;18.70;53.20
60495;DHT22;46342;49.046;11.920;2022-07-12T00:13:56;18.60;53.20
60495;DHT22;46342;49.046;11.920;2022-07-12T00:16:21;18.60;53.30
60495;DHT22;46342;49.046;11.920;2022-07-12T00:18:48;18.60;53.30
60495;DHT22;46342;49.046;11.920;2022-07-12T00:21:14;18.60;53.30
60495;DHT22;46342;49.046;11.920;2022-07-12T00:23:39;18.50;53.30
60495;DHT22;46342;49.046;11.920;2022-07-12T00:26:05;18.50;53.30
60495;DHT22;46342;49.046;11.920;2022-07-12T00:28:31;18.50;53.30
60495;DHT22;46342;49.046;11.920;2022-07-12T00:30:58;18.40;53.30
60495;DHT22;46342;49.046;11.920;2022-07-12T00:33:24;18.40;53.40
60495;DHT22;46342;49.046;11.920;2022-07-12T00:35:49;18.40;53.40
60495;DHT22;46342;49.046;11.920;2022-07-12T00:38:15;18.30;53.40
60495;DHT22;46342;49.046;11.920;2022-07-12T00:40:41;18.30;53.50
60495;DHT22;46342;49.046;11.920;2022-07-12T00:43:07;18.20;53.40
60495;DHT22;46342;49.046;11.920;2022-07-12T00:45:32;18.20;54.00
60495;DHT22;46342;49.046;11.920;2022-07-12T00:47:58;18.20;53.40
60495;DHT22;46342;49.046;11.920;2022-07-12T00:50:24;18.10;53.30
60495;DHT22;46342;49.046;11.920;2022-07-12T00:52:52;18.10;53.30
60495;DHT22;46342;49.046;11.920;2022-07-12T00:55:20;18.10;53.70
60495;DHT22;46342;49.046;11.920;2022-07-12T00:57:46;18.00;53.60
60495;DHT22;46342;49.046;11.920;2022-07-12T01:00:26;18.00;53.50
60495;DHT22;46342;49.046;11.920;2022-07-12T01:02:53;18.00;53.80
60495;DHT22;46342;49.046;11.920;2022-07-12T01:05:19;17.90;54.20
60495;DHT22;46342;49.046;11.920;2022-07-12T01:07:45;17.90;53.70
60495;DHT22;46342;49.046;11.920;2022-07-12T01:10:11;17.90;53.80
60495;DHT22;46342;49.046;11.920;2022-07-12T01:12:37;17.80;53.80
60495;DHT22;46342;49.046;11.920;2022-07-12T01:15:05;17.80;54.00
60495;DHT22;46342;49.046;11.920;2022-07-12T01:17:31;17.80;54.40
60495;DHT22;46342;49.046;11.920;2022-07-12T01:19:58;17.80;54.20
60495;DHT22;46342;49.046;11.920;2022-07-12T01:22:31;17.80;54.50
60495;DHT22;46342;49.046;11.920;2022-07-12T01:24:59;17.80;55.10
60495;DHT22;46342;49.046;11.920;2022-07-12T01:27:24;17.80;54.60
60495;DHT22;46342;49.046;11.920;2022-07-12T01:29:50;17.80;54.60
60495;DHT22;46342;49.046;11.920;2022-07-12T01:32:16;17.80;54.70
60495;DHT22;46342;49.046;11.920;2022-07-12T01:34:53;17.80;54.70
60495;DHT22;46342;49.046;11.920;2022-07-12T01:37:20;17.90;55.00
60495;DHT22;46342;49.046;11.920;2022-07-12T01:39:49;17.80;54.90
60495;DHT22;46342;49.046;11.920;2022-07-12T01:42:15;17.80;54.90
60495;DHT22;46342;49.046;11.920;2022-07-12T01:44:41;17.80;54.90
60495;DHT22;46342;49.046;11.920;2022-07-12T01:47:07;17.80;54.90
60495;DHT22;46342;49.046;11.920;2022-07-12T01:49:32;17.80;55.00
60495;DHT22;46342;49.046;11.920;2022-07-12T01:51:59;17.80;55.00
60495;DHT22;46342;49.046;11.920;2022-07-12T01:54:25;17.80;55.20
60495;DHT22;46342;49.046;11.920;2022-07-12T01:56:54;17.80;55.20
60495;DHT22;46342;49.046;11.920;2022-07-12T01:59:20;17.90;55.70
60495;DHT22;46342;49.046;11.920;2022-07-12T02:01:46;17.80;55.20
60495;DHT22;46342;49.046;11.920;2022-07-12T02:04:15;17.80;55.20
60495;DHT22;46342;49.046;11.920;2022-07-12T02:06:41;17.80;55.30
60495;DHT22;46342;49.046;11.920;2022-07-12T02:09:07;17.80;55.30
60495;DHT22;46342;49.046;11.920;2022-07-12T02:11:33;17.80;55.30
60495;DHT22;46342;49.046;11.920;2022-07-12T02:13:58;17.80;55.30
60495;DHT22;46342;49.046;11.920;2022-07-12T02:16:24;17.80;55.40
60495;DHT22;46342;49.046;11.920;2022-07-12T02:18:50;17.80;55.40
60495;DHT22;46342;49.046;11.920;2022-07-12T02:21:15;17.80;55.40
60495;DHT22;46342;49.046;11.920;2022-07-12T02:23:41;17.70;55.30
60495;DHT22;46342;49.046;11.920;2022-07-12T02:26:07;17.80;55.30
60495;DHT22;46342;49.046;11.920;2022-07-12T02:28:33;17.80;55.30
60495;DHT22;46342;49.046;11.920;2022-07-12T02:30:59;17.70;55.30
60495;DHT22;46342;49.046;11.920;2022-07-12T02:33:24;17.70;55.30
60495;DHT22;46342;49.046;11.920;2022-07-12T02:35:50;17.70;55.30
60495;DHT22;46342;49.046;11.920;2022-07-12T02:38:16;17.70;55.30
60495;DHT22;46342;49.046;11.920;2022-07-12T02:40:41;17.70;55.30
60495;DHT22;46342;49.046;11.920;2022-07-12T02:43:26;17.60;55.10
60495;DHT22;46342;49.046;11.920;2022-07-12T02:45:55;17.60;55.60
60495;DHT22;46342;49.046;11.920;2022-07-12T02:48:23;17.60;55.10
60495;DHT22;46342;49.046;11.920;2022-07-12T02:50:49;17.50;55.00
60495;DHT22;46342;49.046;11.920;2022-07-12T02:53:15;17.50;55.10
60495;DHT22;46342;49.046;11.920;2022-07-12T02:55:41;17.40;55.10
60495;DHT22;46342;49.046;11.920;2022-07-12T02:58:07;17.40;55.10
60495;DHT22;46342;49.046;11.920;2022-07-12T03:00:34;17.40;55.10
60495;DHT22;46342;49.046;11.920;2022-07-12T03:03:00;17.30;55.00
60495;DHT22;46342;49.046;11.920;2022-07-12T03:05:26;17.30;55.60
60495;DHT22;46342;49.046;11.920;2022-07-12T03:07:51;17.20;54.90
60495;DHT22;46342;49.046;11.920;2022-07-12T03:10:17;17.20;55.00
60495;DHT22;46342;49.046;11.920;2022-07-12T03:12:43;17.10;54.90
60495;DHT22;46342;49.046;11.920;2022-07-12T03:15:08;17.10;54.90
60495;DHT22;46342;49.046;11.920;2022-07-12T03:17:34;17.10;55.00
60495;DHT22;46342;49.046;11.920;2022-07-12T03:20:01;17.00;55.00
60495;DHT22;46342;49.046;11.920;2022-07-12T03:22:27;17.00;55.00
60495;DHT22;46342;49.046;11.920;2022-07-12T03:24:52;17.00;55.00
60495;DHT22;46342;49.046;11.920;2022-07-12T03:27:19;16.90;54.90
60495;DHT22;46342;49.046;11.920;2022-07-12T03:29:45;16.90;55.00
60495;DHT22;46342;49.046;11.920;2022-07-12T03:32:10;16.80;55.00
60495;DHT22;46342;49.046;11.920;2022-07-12T03:34:37;16.80;55.10
60495;DHT22;46342;49.046;11.920;2022-07-12T03:37:03;16.80;55.20
60495;DHT22;46342;49.046;11.920;2022-07-12T03:39:29;16.70;55.20
60495;DHT22;46342;49.046;11.920;2022-07-12T03:41:55;16.70;55.20
60495;DHT22;46342;49.046;11.920;2022-07-12T03:44:20;16.60;55.20
60495;DHT22;46342;49.046;11.920;2022-07-12T03:46:46;16.60;55.30
60495;DHT22;46342;49.046;11.920;2022-07-12T03:49:13;16.60;55.30
60495;DHT22;46342;49.046;11.920;2022-07-12T03:51:39;16.60;55.40
60495;DHT22;46342;49.046;11.920;2022-07-12T03:54:05;16.50;55.40
60495;DHT22;46342;49.046;11.920;2022-07-12T03:56:35;16.50;55.50
60495;DHT22;46342;49.046;11.920;2022-07-12T03:59:20;16.50;55.60
60495;DHT22;46342;49.046;11.920;2022-07-12T04:01:45;16.50;55.60
60495;DHT22;46342;49.046;11.920;2022-07-12T04:04:11;16.40;55.70
60495;DHT22;46342;49.046;11.920;2022-07-12T04:06:38;16.40;55.80
60495;DHT22;46342;49.046;11.920;2022-07-12T04:09:06;16.40;56.10
60495;DHT22;46342;49.046;11.920;2022-07-12T04:11:32;16.40;55.90
60495;DHT22;46342;49.046;11.920;2022-07-12T04:13:58;16.40;56.10
60495;DHT22;46342;49.046;11.920;2022-07-12T04:16:25;16.40;56.10
60495;DHT22;46342;49.046;11.920;2022-07-12T04:18:50;16.40;56.10
60495;DHT22;46342;49.046;11.920;2022-07-12T04:21:16;16.40;56.20
60495;DHT22;46342;49.046;11.920;2022-07-12T04:23:42;16.30;56.20
60495;DHT22;46342;49.046;11.920;2022-07-12T04:26:07;16.30;56.20
60495;DHT22;46342;49.046;11.920;2022-07-12T04:28:35;16.30;56.30
60495;DHT22;46342;49.046;11.920;2022-07-12T04:31:00;16.30;56.60
60495;DHT22;46342;49.046;11.920;2022-07-12T04:33:26;16.30;56.90
60495;DHT22;46342;49.046;11.920;2022-07-12T04:35:52;16.30;56.40
60495;DHT22;46342;49.046;11.920;2022-07-12T04:38:17;16.20;56.50
60495;DHT22;46342;49.046;11.920;2022-07-12T04:40:43;16.30;56.70
60495;DHT22;46342;49.046;11.920;2022-07-12T04:43:09;16.30;56.80
60495;DHT22;46342;49.046;11.920;2022-07-12T04:45:34;16.30;56.90
60495;DHT22;46342;49.046;11.920;2022-07-12T04:48:00;16.30;57.00
60495;DHT22;46342;49.046;11.920;2022-07-12T04:50:26;16.30;57.10
60495;DHT22;46342;49.046;11.920;2022-07-12T04:52:52;16.30;57.10
60495;DHT22;46342;49.046;11.920;2022-07-12T04:55:17;16.30;57.10
60495;DHT22;46342;49.046;11.920;2022-07-12T04:57:43;16.30;57.20
60495;DHT22;46342;49.046;11.920;2022-07-12T05:00:09;16.30;57.20
60495;DHT22;46342;49.046;11.920;2022-07-12T05:02:36;16.30;57.30
60495;DHT22;46342;49.046;11.920;2022-07-12T05:05:02;16.30;57.30
60495;DHT22;46342;49.046;11.920;2022-07-12T05:07:28;16.30;57.50
60495;DHT22;46342;49.046;11.920;2022-07-12T05:09:54;16.40;57.60
60495;DHT22;46342;49.046;11.920;2022-07-12T05:12:20;16.40;57.60
60495;DHT22;46342;49.046;11.920;2022-07-12T05:14:45;16.40;57.60
60495;DHT22;46342;49.046;11.920;2022-07-12T05:17:11;16.40;57.70
60495;DHT22;46342;49.046;11.920;2022-07-12T05:19:37;16.50;57.90
60495;DHT22;46342;49.046;11.920;2022-07-12T05:22:03;16.50;58.10
60495;DHT22;46342;49.046;11.920;2022-07-12T05:24:29;16.50;58.00
60495;DHT22;46342;49.046;11.920;2022-07-12T05:26:55;16.60;58.00
60495;DHT22;46342;49.046;11.920;2022-07-12T05:29:20;16.60;58.00
60495;DHT22;46342;49.046;11.920;2022-07-12T05:31:46;16.60;58.00
60495;DHT22;46342;49.046;11.920;2022-07-12T05:34:12;16.60;58.10
60495;DHT22;46342;49.046;11.920;2022-07-12T05:36:38;16.70;58.30
60495;DHT22;46342;49.046;11.920;2022-07-12T05:39:04;16.70;58.30
60495;DHT22;46342;49.046;11.920;2022-07-12T05:41:30;16.70;58.30
60495;DHT22;46342;49.046;11.920;2022-07-12T05:43:55;16.70;58.40
60495;DHT22;46342;49.046;11.920;2022-07-12T05:46:21;16.80;58.60
60495;DHT22;46342;49.046;11.920;2022-07-12T05:48:47;16.80;58.60
60495;DHT22;46342;49.046;11.920;2022-07-12T05:51:13;16.80;58.70
60495;DHT22;46342;49.046;11.920;2022-07-12T05:53:59;16.90;58.80
60495;DHT22;46342;49.046;11.920;2022-07-12T05:56:25;16.90;59.40
60495;DHT22;46342;49.046;11.920;2022-07-12T05:58:51;16.90;58.80
60495;DHT22;46342;49.046;11.920;2022-07-12T06:01:17;17.00;59.00
60495;DHT22;46342;49.046;11.920;2022-07-12T06:03:43;17.10;59.30
60495;DHT22;46342;49.046;11.920;2022-07-12T06:06:09;17.10;59.20
60495;DHT22;46342;49.046;11.920;2022-07-12T06:08:35;17.20;59.40
60495;DHT22;46342;49.046;11.920;2022-07-12T06:11:00;17.20;59.30
60495;DHT22;46342;49.046;11.920;2022-07-12T06:13:26;17.30;59.40
60495;DHT22;46342;49.046;11.920;2022-07-12T06:15:52;17.40;59.50
60495;DHT22;46342;49.046;11.920;2022-07-12T06:18:17;17.40;59.40
60495;DHT22;46342;49.046;11.920;2022-07-12T06:20:43;17.50;59.50
60495;DHT22;46342;49.046;11.920;2022-07-12T06:23:09;17.60;59.60
60495;DHT22;46342;49.046;11.920;2022-07-12T06:25:44;17.60;59.40
60495;DHT22;46342;49.046;11.920;2022-07-12T06:28:11;17.70;60.00
60495;DHT22;46342;49.046;11.920;2022-07-12T06:30:44;17.80;60.00
60495;DHT22;46342;49.046;11.920;2022-07-12T06:33:10;17.80;59.70
60495;DHT22;46342;49.046;11.920;2022-07-12T06:35:36;17.90;59.10
60495;DHT22;46342;49.046;11.920;2022-07-12T06:38:02;18.00;59.10
60495;DHT22;46342;49.046;11.920;2022-07-12T06:40:28;18.10;59.10
60495;DHT22;46342;49.046;11.920;2022-07-12T06:42:53;18.10;59.10
60495;DHT22;46342;49.046;11.920;2022-07-12T06:45:19;18.20;59.00
60495;DHT22;46342;49.046;11.920;2022-07-12T06:47:45;18.20;58.90
60495;DHT22;46342;49.046;11.920;2022-07-12T06:50:10;18.30;58.90
60495;DHT22;46342;49.046;11.920;2022-07-12T06:52:36;18.40;58.80
60495;DHT22;46342;49.046;11.920;2022-07-12T06:55:03;18.40;58.60
60495;DHT22;46342;49.046;11.920;2022-07-12T06:57:28;18.50;58.70
60495;DHT22;46342;49.046;11.920;2022-07-12T06:59:59;18.60;58.60
60495;DHT22;46342;49.046;11.920;2022-07-12T07:02:25;18.60;58.50
60495;DHT22;46342;49.046;11.920;2022-07-12T07:05:05;18.70;58.40
60495;DHT22;46342;49.046;11.920;2022-07-12T07:07:31;18.80;58.20
60495;DHT22;46342;49.046;11.920;2022-07-12T07:09:57;18.90;58.20
60495;DHT22;46342;49.046;11.920;2022-07-12T07:12:23;18.90;58.00
60495;DHT22;46342;49.046;11.920;2022-07-12T07:14:51;19.00;58.00
60495;DHT22;46342;49.046;11.920;2022-07-12T07:17:22;19.10;57.80
60495;DHT22;46342;49.046;11.920;2022-07-12T07:19:49;19.10;57.70
60495;DHT22;46342;49.046;11.920;2022-07-12T07:22:18;19.20;57.60
60495;DHT22;46342;49.046;11.920;2022-07-12T07:24:44;19.20;57.50
60495;DHT22;46342;49.046;11.920;2022-07-12T07:27:10;19.30;57.40
60495;DHT22;46342;49.046;11.920;2022-07-12T07:29:36;19.40;57.20
60495;DHT22;46342;49.046;11.920;2022-07-12T07:32:20;19.50;57.10
60495;DHT22;46342;49.046;11.920;2022-07-12T07:34:46;19.50;56.90
60495;DHT22;46342;49.046;11.920;2022-07-12T07:37:14;19.60;57.00
60495;DHT22;46342;49.046;11.920;2022-07-12T07:39:40;19.60;56.80
60495;DHT22;46342;49.046;11.920;2022-07-12T07:42:06;19.70;56.70
60495;DHT22;46342;49.046;11.920;2022-07-12T07:44:32;19.80;56.60
60495;DHT22;46342;49.046;11.920;2022-07-12T07:47:00;19.90;56.50
60495;DHT22;46342;49.046;11.920;2022-07-12T07:49:26;19.90;56.10
60495;DHT22;46342;49.046;11.920;2022-07-12T07:51:51;20.00;56.20
60495;DHT22;46342;49.046;11.920;2022-07-12T07:54:17;20.10;56.10
60495;DHT22;46342;49.046;11.920;2022-07-12T07:56:43;20.20;56.00
60495;DHT22;46342;49.046;11.920;2022-07-12T08:49:07;22.10;52.00
60495;DHT22;46342;49.046;11.920;2022-07-12T08:51:34;22.20;53.20
60495;DHT22;46342;49.046;11.920;2022-07-12T08:56:40;22.40;51.30
60495;DHT22;46342;49.046;11.920;2022-07-12T09:01:39;22.50;51.30
60495;DHT22;46342;49.046;11.920;2022-07-12T09:04:10;22.60;52.00
60495;DHT22;46342;49.046;11.920;2022-07-12T09:06:36;22.60;51.30
60495;DHT22;46342;49.046;11.920;2022-07-12T09:09:02;22.70;51.70
60495;DHT22;46342;49.046;11.920;2022-07-12T09:11:27;22.70;51.60
60495;DHT22;46342;49.046;11.920;2022-07-12T09:13:55;22.80;51.60
60495;DHT22;46342;49.046;11.920;2022-07-12T09:16:26;22.90;51.50
60495;DHT22;46342;49.046;11.920;2022-07-12T09:19:14;23.00;50.60
60495;DHT22;46342;49.046;11.920;2022-07-12T09:21:50;23.10;49.70
60495;DHT22;46342;49.046;11.920;2022-07-12T09:24:16;23.20;49.90
60495;DHT22;46342;49.046;11.920;2022-07-12T09:26:42;23.20;50.70
60495;DHT22;46342;49.046;11.920;2022-07-12T09:29:10;23.30;50.70
60495;DHT22;46342;49.046;11.920;2022-07-12T09:31:48;23.30;50.50
60495;DHT22;46342;49.046;11.920;2022-07-12T09:34:32;23.40;49.80
60495;DHT22;46342;49.046;11.920;2022-07-12T09:37:17;23.40;50.20
60495;DHT22;46342;49.046;11.920;2022-07-12T09:39:43;23.50;50.00
60495;DHT22;46342;49.046;11.920;2022-07-12T09:42:10;23.50;49.90
60495;DHT22;46342;49.046;11.920;2022-07-12T09:48:17;23.70;48.90
60495;DHT22;46342;49.046;11.920;2022-07-12T11:37:16;27.10;43.80
60495;DHT22;46342;49.046;11.920;2022-07-12T11:39:42;27.10;45.20
60495;DHT22;46342;49.046;11.920;2022-07-12T11:42:17;27.20;44.60
60495;DHT22;46342;49.046;11.920;2022-07-12T11:44:52;27.20;44.40
60495;DHT22;46342;49.046;11.920;2022-07-12T11:47:22;27.30;43.50
60495;DHT22;46342;49.046;11.920;2022-07-12T11:49:51;27.30;44.20
60495;DHT22;46342;49.046;11.920;2022-07-12T11:52:22;27.30;44.30
60495;DHT22;46342;49.046;11.920;2022-07-12T11:54:50;27.40;43.50
60495;DHT22;46342;49.046;11.920;2022-07-12T11:57:19;27.40;44.10
60495;DHT22;46342;49.046;11.920;2022-07-12T11:59:48;27.50;43.60
60495;DHT22;46342;49.046;11.920;2022-07-12T12:02:15;27.70;43.40
60495;DHT22;46342;49.046;11.920;2022-07-12T13:41:05;30.40;37.70
60495;DHT22;46342;49.046;11.920;2022-07-12T13:43:31;30.40;38.50
60495;DHT22;46342;49.046;11.920;2022-07-12T13:45:56;30.30;38.30
60495;DHT22;46342;49.046;11.920;2022-07-12T13:48:22;30.30;38.10
60495;DHT22;46342;49.046;11.920;2022-07-12T13:50:48;30.30;38.10
60495;DHT22;46342;49.046;11.920;2022-07-12T13:53:14;30.30;38.10
60495;DHT22;46342;49.046;11.920;2022-07-12T13:55:49;30.40;38.10
60495;DHT22;46342;49.046;11.920;2022-07-12T13:58:15;30.40;37.80
60495;DHT22;46342;49.046;11.920;2022-07-12T14:00:43;30.50;38.10
60495;DHT22;46342;49.046;11.920;2022-07-12T14:03:09;30.60;37.70
60495;DHT22;46342;49.046;11.920;2022-07-12T14:05:35;30.60;37.60
60495;DHT22;46342;49.046;11.920;2022-07-12T14:08:02;30.70;37.60
60495;DHT22;46342;49.046;11.920;2022-07-12T14:10:28;30.90;37.50
60495;DHT22;46342;49.046;11.920;2022-07-12T14:12:54;30.90;37.90
60495;DHT22;46342;49.046;11.920;2022-07-12T14:15:20;31.00;37.20
60495;DHT22;46342;49.046;11.920;2022-07-12T14:18:05;31.00;36.90
60495;DHT22;46342;49.046;11.920;2022-07-12T14:20:35;31.00;36.60
60495;DHT22;46342;49.046;11.920;2022-07-12T14:23:01;31.00;36.40
60495;DHT22;46342;49.046;11.920;2022-07-12T14:25:27;31.10;36.40
60495;DHT22;46342;49.046;11.920;2022-07-12T14:27:53;31.00;36.60
60495;DHT22;46342;49.046;11.920;2022-07-12T14:30:19;31.00;36.50
60495;DHT22;46342;49.046;11.920;2022-07-12T14:32:44;30.90;36.60
60495;DHT22;46342;49.046;11.920;2022-07-12T14:35:10;30.90;36.80
60495;DHT22;46342;49.046;11.920;2022-07-12T14:37:37;30.90;36.70
60495;DHT22;46342;49.046;11.920;2022-07-12T14:40:04;30.90;36.60
60495;DHT22;46342;49.046;11.920;2022-07-12T14:42:29;30.90;36.50
60495;DHT22;46342;49.046;11.920;2022-07-12T14:44:55;31.00;36.50
60495;DHT22;46342;49.046;11.920;2022-07-12T14:47:24;31.00;36.40
60495;DHT22;46342;49.046;11.920;2022-07-12T14:49:50;31.10;36.20
60495;DHT22;46342;49.046;11.920;2022-07-12T14:52:16;31.20;36.30
60495;DHT22;46342;49.046;11.920;2022-07-12T14:54:42;31.30;36.10
60495;DHT22;46342;49.046;11.920;2022-07-12T14:57:11;31.40;36.10
60495;DHT22;46342;49.046;11.920;2022-07-12T14:59:36;31.50;35.60
60495;DHT22;46342;49.046;11.920;2022-07-12T15:02:08;31.50;35.50
60495;DHT22;46342;49.046;11.920;2022-07-12T15:04:34;31.60;34.20
60495;DHT22;46342;49.046;11.920;2022-07-12T15:07:20;31.70;35.10
60495;DHT22;46342;49.046;11.920;2022-07-12T15:12:34;31.70;34.70
60495;DHT22;46342;49.046;11.920;2022-07-12T15:15:00;31.70;34.30
60495;DHT22;46342;49.046;11.920;2022-07-12T15:17:47;31.70;34.50
60495;DHT22;46342;49.046;11.920;2022-07-12T15:20:21;31.80;33.40
60495;DHT22;46342;49.046;11.920;2022-07-12T15:22:47;31.80;33.30
60495;DHT22;46342;49.046;11.920;2022-07-12T15:25:13;31.70;34.10
60495;DHT22;46342;49.046;11.920;2022-07-12T15:27:54;31.70;33.90
60495;DHT22;46342;49.046;11.920;2022-07-12T18:30:23;29.10;33.30
60495;DHT22;46342;49.046;11.920;2022-07-12T18:32:56;28.90;33.70
60495;DHT22;46342;49.046;11.920;2022-07-12T18:35:22;28.80;33.70
60495;DHT22;46342;49.046;11.920;2022-07-12T18:37:47;28.70;33.80
60495;DHT22;46342;49.046;11.920;2022-07-12T18:40:13;28.60;33.90
60495;DHT22;46342;49.046;11.920;2022-07-12T18:42:38;28.50;34.10
60495;DHT22;46342;49.046;11.920;2022-07-12T18:45:06;28.40;34.20
60495;DHT22;46342;49.046;11.920;2022-07-12T18:47:33;28.30;34.60
60495;DHT22;46342;49.046;11.920;2022-07-12T18:49:58;28.20;34.70
60495;DHT22;46342;49.046;11.920;2022-07-12T18:52:24;28.10;34.70
60495;DHT22;46342;49.046;11.920;2022-07-12T18:54:51;28.00;34.90
60495;DHT22;46342;49.046;11.920;2022-07-12T18:57:21;28.00;35.00
60495;DHT22;46342;49.046;11.920;2022-07-12T18:59:46;27.90;35.20
60495;DHT22;46342;49.046;11.920;2022-07-12T19:02:13;27.80;35.20
60495;DHT22;46342;49.046;11.920;2022-07-12T19:04:38;27.70;35.40
60495;DHT22;46342;49.046;11.920;2022-07-12T19:07:04;27.60;35.50
60495;DHT22;46342;49.046;11.920;2022-07-12T19:09:29;27.50;35.60
60495;DHT22;46342;49.046;11.920;2022-07-12T19:11:57;27.40;35.70
60495;DHT22;46342;49.046;11.920;2022-07-12T19:14:23;27.30;35.80
60495;DHT22;46342;49.046;11.920;2022-07-12T19:16:48;27.20;35.80
60495;DHT22;46342;49.046;11.920;2022-07-12T19:19:14;27.10;35.70
60495;DHT22;46342;49.046;11.920;2022-07-12T19:21:40;26.90;35.80
60495;DHT22;46342;49.046;11.920;2022-07-12T19:24:06;26.80;36.00
60495;DHT22;46342;49.046;11.920;2022-07-12T19:26:32;26.70;36.10
60495;DHT22;46342;49.046;11.920;2022-07-12T19:28:58;26.60;36.30
60495;DHT22;46342;49.046;11.920;2022-07-12T19:31:24;26.40;36.30
60495;DHT22;46342;49.046;11.920;2022-07-12T19:33:49;26.30;36.50
60495;DHT22;46342;49.046;11.920;2022-07-12T19:36:15;26.20;36.60
60495;DHT22;46342;49.046;11.920;2022-07-12T19:38:40;26.10;36.70
60495;DHT22;46342;49.046;11.920;2022-07-12T19:41:06;26.00;36.80
60495;DHT22;46342;49.046;11.920;2022-07-12T19:43:32;25.90;36.90
60495;DHT22;46342;49.046;11.920;2022-07-12T19:45:59;25.70;37.00
60495;DHT22;46342;49.046;11.920;2022-07-12T19:48:24;25.60;37.20
60495;DHT22;46342;49.046;11.920;2022-07-12T19:50:50;25.50;37.40
60495;DHT22;46342;49.046;11.920;2022-07-12T19:53:16;25.40;37.40
60495;DHT22;46342;49.046;11.920;2022-07-12T19:55:43;25.30;37.60
60495;DHT22;46342;49.046;11.920;2022-07-12T19:58:08;25.20;37.70
60495;DHT22;46342;49.046;11.920;2022-07-12T20:00:35;25.10;37.90
60495;DHT22;46342;49.046;11.920;2022-07-12T20:03:01;25.00;38.60
60495;DHT22;46342;49.046;11.920;2022-07-12T20:05:27;24.90;38.10
60495;DHT22;46342;49.046;11.920;2022-07-12T20:07:59;24.80;38.20
60495;DHT22;46342;49.046;11.920;2022-07-12T20:10:33;24.70;38.40
60495;DHT22;46342;49.046;11.920;2022-07-12T20:13:02;24.60;38.30
60495;DHT22;46342;49.046;11.920;2022-07-12T20:15:28;24.50;38.60
60495;DHT22;46342;49.046;11.920;2022-07-12T20:17:53;24.40;38.50
60495;DHT22;46342;49.046;11.920;2022-07-12T20:20:56;24.30;39.20
60495;DHT22;46342;49.046;11.920;2022-07-12T20:23:42;24.30;39.20
60495;DHT22;46342;49.046;11.920;2022-07-12T20:26:11;24.10;38.60
60495;DHT22;46342;49.046;11.920;2022-07-12T20:28:37;24.00;38.80
60495;DHT22;46342;49.046;11.920;2022-07-12T20:31:04;23.90;38.80
60495;DHT22;46342;49.046;11.920;2022-07-12T20:33:32;23.90;39.10
60495;DHT22;46342;49.046;11.920;2022-07-12T20:36:17;23.80;39.10
60495;DHT22;46342;49.046;11.920;2022-07-12T20:39:09;23.70;39.20
60495;DHT22;46342;49.046;11.920;2022-07-12T20:41:38;23.60;39.30
60495;DHT22;46342;49.046;11.920;2022-07-12T20:44:04;23.60;39.50
60495;DHT22;46342;49.046;11.920;2022-07-12T20:46:31;23.50;39.40
60495;DHT22;46342;49.046;11.920;2022-07-12T20:49:18;23.50;39.50
60495;DHT22;46342;49.046;11.920;2022-07-12T20:51:54;23.40;40.10
60495;DHT22;46342;49.046;11.920;2022-07-12T20:54:25;23.30;39.60
60495;DHT22;46342;49.046;11.920;2022-07-12T20:56:58;23.20;39.80
60495;DHT22;46342;49.046;11.920;2022-07-12T20:59:29;23.10;39.80
60495;DHT22;46342;49.046;11.920;2022-07-12T21:01:55;23.10;40.10
60495;DHT22;46342;49.046;11.920;2022-07-12T21:04:21;23.00;40.00
60495;DHT22;46342;49.046;11.920;2022-07-12T21:06:47;22.90;40.00
60495;DHT22;46342;49.046;11.920;2022-07-12T21:09:13;22.90;40.10
60495;DHT22;46342;49.046;11.920;2022-07-12T21:11:38;22.80;40.20
60495;DHT22;46342;49.046;11.920;2022-07-12T21:14:06;22.80;40.40
60495;DHT22;46342;49.046;11.920;2022-07-12T21:16:35;22.70;40.50
60495;DHT22;46342;49.046;11.920;2022-07-12T21:19:01;22.60;40.50
60495;DHT22;46342;49.046;11.920;2022-07-12T21:21:27;22.60;40.70
60495;DHT22;46342;49.046;11.920;2022-07-12T21:23:53;22.50;40.70
60495;DHT22;46342;49.046;11.920;2022-07-12T21:26:18;22.50;40.80
60495;DHT22;46342;49.046;11.920;2022-07-12T21:28:44;22.40;40.80
60495;DHT22;46342;49.046;11.920;2022-07-12T21:31:10;22.40;41.00
60495;DHT22;46342;49.046;11.920;2022-07-12T21:33:36;22.30;40.90
60495;DHT22;46342;49.046;11.920;2022-07-12T21:36:03;22.30;41.00
60495;DHT22;46342;49.046;11.920;2022-07-12T21:38:29;22.20;41.10
60495;DHT22;46342;49.046;11.920;2022-07-12T21:40:55;22.20;41.80
60495;DHT22;46342;49.046;11.920;2022-07-12T21:43:20;22.10;41.20
